Time;durP1;ratioP1;P1;durP2;ratioP2;P2;SDS_P1;SDS_P2;PMS_P1;PMS_P2;Temp;Humidity;BMP_temperature;BMP_pressure;BME280_temperature;BME280_humidity;BME280_pressure;Samples;Min_cycle;Max_cycle;Signal;HPM_P1;HPM_P2
2023/09/03 00:00:52;;;;;;;5.07;2.00;;;;;;;20.51;80.75;99789.66;7320087;39;20504;31
2023/09/03 00:06:28;;;;;;;5.30;1.60;;;;;;;20.58;80.09;99790.44;7300186;39;20264;31
2023/09/03 00:11:48;;;;;;;3.35;1.95;;;;;;;20.59;80.33;99793.00;7251091;40;20260;31
2023/09/03 00:17:30;;;;;;;3.37;2.00;;;;;;;20.39;81.94;99791.38;7238020;40;20261;31
2023/09/03 00:22:50;;;;;;;3.90;1.75;;;;;;;20.35;81.71;99798.34;7228170;40;20260;31
2023/09/03 00:28:10;;;;;;;3.97;2.10;;;;;;;20.23;81.80;99804.44;7265281;40;20287;31
2023/09/03 00:38:54;;;;;;;3.00;2.00;;;;;;;20.00;82.68;99811.44;7255941;39;20280;31
2023/09/03 00:49:37;;;;;;;2.77;1.90;;;;;;;19.92;83.73;99819.88;7282701;39;21724;31
2023/09/03 00:55:13;;;;;;;2.12;1.90;;;;;;;19.95;84.45;99819.44;7278441;40;20362;31
2023/09/03 01:05:43;;;;;;;4.70;2.10;;;;;;;19.91;84.56;99826.41;7279463;40;21145;31
2023/09/03 01:11:20;;;;;;;4.65;2.00;;;;;;;19.84;83.68;99822.81;7222480;40;20273;31
2023/09/03 01:16:55;;;;;;;3.00;2.00;;;;;;;19.79;82.97;99828.91;7269010;40;20287;31
2023/09/03 01:22:32;;;;;;;6.30;2.10;;;;;;;19.74;83.38;99829.56;7320671;39;20244;31
2023/09/03 01:28:08;;;;;;;3.62;2.00;;;;;;;19.78;83.46;99829.97;7250151;40;20347;31
2023/09/03 01:34:03;;;;;;;5.10;1.83;;;;;;;19.79;84.22;99850.78;7221146;40;20264;31
2023/09/03 01:44:45;;;;;;;6.20;2.50;;;;;;;19.70;82.92;99863.84;7273288;40;20634;31
2023/09/03 01:50:22;;;;;;;2.23;1.80;;;;;;;19.71;84.21;99857.31;7255006;40;20344;31
2023/09/03 01:55:57;;;;;;;4.68;2.25;;;;;;;19.67;83.18;99858.78;7269922;40;20256;31
2023/09/03 02:07:43;;;;;;;;;;;;;;;;;;;;;
2023/09/03 02:12:58;;;;;;;2.83;2.10;;;;;;;19.67;83.37;99869.72;7176254;40;20425;31
2023/09/03 02:18:18;;;;;;;3.33;1.80;;;;;;;19.66;83.14;99862.56;7268309;40;20268;31
2023/09/03 02:23:55;;;;;;;5.55;1.80;;;;;;;19.64;81.55;99872.06;7341207;39;20260;31
2023/09/03 02:29:15;;;;;;;3.55;1.90;;;;;;;19.49;82.92;99864.03;7263194;40;20354;31
2023/09/03 02:34:50;;;;;;;3.90;2.00;;;;;;;19.40;83.11;99870.69;7250136;40;20361;31
2023/09/03 02:40:29;;;;;;;2.33;1.83;;;;;;;19.32;83.23;99877.22;7242701;40;20261;31
2023/09/03 02:45:49;;;;;;;3.80;1.70;;;;;;;19.31;83.15;99885.59;7234455;40;20904;31
2023/09/03 02:56:47;;;;;;;4.90;1.85;;;;;;;19.31;83.60;99893.81;7346413;38;9834677;31
2023/09/03 03:07:13;;;;;;;3.60;1.70;;;;;;;19.07;84.54;99908.87;7468419;39;21188;31
2023/09/03 03:12:49;;;;;;;2.30;1.90;;;;;;;19.03;85.52;99901.28;7452219;39;20246;31
2023/09/03 03:18:10;;;;;;;3.10;2.00;;;;;;;19.02;84.91;99899.59;7402763;39;20378;31
2023/09/03 03:28:54;;;;;;;3.13;1.80;;;;;;;18.77;85.09;99908.31;7406589;39;20250;31
2023/09/03 03:34:16;;;;;;;3.73;1.87;;;;;;;18.74;85.11;99914.16;7403650;39;20246;31
2023/09/03 03:39:54;;;;;;;2.95;1.92;;;;;;;18.87;84.79;99907.94;7341205;39;20299;31
2023/09/03 03:45:29;;;;;;;2.90;1.90;;;;;;;18.95;83.87;99910.50;7267776;40;20249;31
2023/09/03 03:51:08;;;;;;;2.80;1.90;;;;;;;18.98;83.29;99911.97;7298510;39;20274;31
2023/09/03 03:56:46;;;;;;;4.70;1.70;;;;;;;18.91;84.80;99926.44;7332550;39;20243;31
2023/09/03 04:02:23;;;;;;;5.10;2.10;;;;;;;18.92;84.23;99916.38;7284957;40;20244;31
2023/09/03 04:07:58;;;;;;;3.80;2.00;;;;;;;18.81;83.74;99922.41;7226248;40;20283;31
2023/09/03 04:13:20;;;;;;;4.10;1.97;;;;;;;18.69;83.75;99924.84;7201391;40;20242;31
2023/09/03 04:18:57;;;;;;;4.10;2.30;;;;;;;18.76;83.42;99912.09;7225497;40;20360;31
2023/09/03 04:24:18;;;;;;;3.60;2.00;;;;;;;18.78;82.80;99907.25;7254403;39;20244;31
2023/09/03 04:29:52;;;;;;;2.80;2.10;;;;;;;18.74;84.00;99929.72;7309937;39;20244;31
2023/09/03 04:35:27;;;;;;;2.78;1.95;;;;;;;18.73;84.07;99944.44;7239470;40;20343;31
2023/09/03 04:41:03;;;;;;;3.05;1.80;;;;;;;18.77;83.52;99942.97;7275931;40;20346;31
2023/09/03 04:46:24;;;;;;;2.40;1.80;;;;;;;18.71;84.32;99950.09;7299035;39;20237;31
2023/09/03 04:52:01;;;;;;;2.50;2.15;;;;;;;18.66;84.04;99947.09;7299226;40;20349;31
2023/09/03 04:57:36;;;;;;;2.80;2.10;;;;;;;18.74;84.50;99957.88;7227110;40;20361;31
2023/09/03 05:03:14;;;;;;;2.50;1.85;;;;;;;18.80;84.46;99976.19;7237612;40;20246;31
2023/09/03 05:08:50;;;;;;;2.92;1.80;;;;;;;18.47;84.04;100002.41;7216914;40;20343;31
2023/09/03 05:14:35;;;;;;;;;;;;;;;;;;;;;
2023/09/03 05:20:02;;;;;;;3.15;2.00;;;;;;;18.36;87.02;100003.78;7223934;40;20674;31
2023/09/03 05:25:51;;;;;;;3.87;2.03;;;;;;;18.46;87.98;100003.44;7211994;40;20261;31
2023/09/03 05:30:59;;;;;;;3.10;2.10;;;;;;;18.53;86.77;99993.44;7316296;39;20348;31
2023/09/03 05:36:20;;;;;;;4.50;1.90;;;;;;;18.67;86.95;99967.06;7348718;39;20344;31
2023/09/03 05:41:56;;;;;;;2.73;2.00;;;;;;;18.86;86.06;99966.38;7369734;39;20243;31
2023/09/03 05:47:18;;;;;;;3.83;1.90;;;;;;;18.97;85.11;99979.44;7290257;39;20241;31
2023/09/03 05:52:52;;;;;;;6.87;2.17;;;;;;;18.85;86.11;99990.09;7253376;40;20366;31
2023/09/03 06:03:32;;;;;;;3.90;2.00;;;;;;;18.77;87.64;100014.00;7277615;39;21663;31
2023/09/03 06:14:09;;;;;;;4.40;2.10;;;;;;;19.03;87.88;100021.53;7320262;39;20256;31
2023/09/03 06:19:48;;;;;;;2.80;2.30;;;;;;;19.13;87.76;100031.03;7304396;40;20291;31
2023/09/03 06:25:22;;;;;;;4.32;1.98;;;;;;;19.28;87.43;100041.84;7280940;40;20253;31
2023/09/03 06:30:44;;;;;;;2.85;2.00;;;;;;;19.31;87.23;100044.16;7236454;40;20347;31
2023/09/03 06:36:34;;;;;;;5.10;2.30;;;;;;;19.28;86.92;100050.91;7259599;40;20341;31
2023/09/03 06:41:54;;;;;;;2.53;2.13;;;;;;;19.38;87.70;100053.28;7257553;40;20363;31
2023/09/03 06:47:29;;;;;;;2.40;1.97;;;;;;;19.54;86.30;100058.41;7258067;40;20245;31
2023/09/03 06:53:05;;;;;;;3.40;2.00;;;;;;;19.69;86.22;100056.41;7226158;40;20268;31
2023/09/03 06:58:29;;;;;;;3.47;2.37;;;;;;;19.86;85.31;100064.22;7217993;40;20290;31
2023/09/03 07:09:11;;;;;;;4.77;1.97;;;;;;;20.00;86.68;100085.13;7266685;40;21273;31
2023/09/03 07:14:49;;;;;;;3.60;1.90;;;;;;;20.12;86.00;100103.47;7239638;40;20241;31
2023/09/03 07:20:25;;;;;;;2.40;2.20;;;;;;;20.24;85.21;100103.72;7298197;39;20325;31
2023/09/03 07:26:01;;;;;;;3.83;2.60;;;;;;;20.23;84.42;100100.12;7236309;40;20285;31
2023/09/03 07:37:09;;;;;;;;;;;;;;;;;;;;;
2023/09/03 07:42:21;;;;;;;3.77;3.37;;;;;;;20.68;84.49;100108.66;7447658;39;20345;31
2023/09/03 07:47:56;;;;;;;5.20;4.30;;;;;;;20.83;84.08;100119.44;7470941;39;20241;31
2023/09/03 07:53:37;;;;;;;5.67;3.90;;;;;;;20.99;83.67;100122.59;7361253;39;20240;31
2023/09/03 08:04:17;;;;;;;4.30;3.90;;;;;;;21.24;83.10;100128.28;7393797;39;20313;31
2023/09/03 08:10:00;;;;;;;4.80;4.30;;;;;;;21.35;82.31;100135.03;7424616;39;21051;31
2023/09/03 08:20:42;;;;;;;5.12;4.03;;;;;;;21.58;81.67;100132.69;7385332;39;20274;31
2023/09/03 08:26:18;;;;;;;5.77;4.90;;;;;;;21.68;81.49;100137.69;7384273;39;20838;31
2023/09/03 08:31:55;;;;;;;5.90;5.30;;;;;;;21.82;80.73;100142.09;7328923;39;20351;31
2023/09/03 08:37:16;;;;;;;6.30;4.90;;;;;;;22.10;80.26;100139.91;7323525;39;20236;31
2023/09/03 08:42:52;;;;;;;5.62;4.80;;;;;;;22.27;78.40;100141.09;7282801;40;20301;31
2023/09/03 08:48:27;;;;;;;5.50;4.60;;;;;;;22.32;79.07;100170.66;7299857;39;20252;31
2023/09/03 08:54:02;;;;;;;5.85;4.55;;;;;;;22.36;79.26;100178.25;7322378;39;20273;31
2023/09/03 08:59:39;;;;;;;6.43;4.93;;;;;;;22.37;78.80;100198.31;7297484;39;20264;31
2023/09/03 09:10:18;;;;;;;5.28;4.62;;;;;;;22.43;78.39;100200.19;7359865;39;21473;31
2023/09/03 09:15:57;;;;;;;5.40;4.90;;;;;;;22.66;77.95;100188.63;7305888;39;20240;31
2023/09/03 09:21:36;;;;;;;7.47;5.57;;;;;;;22.73;76.43;100192.25;7348537;39;20243;31
2023/09/03 09:27:22;;;;;;;5.15;4.40;;;;;;;22.72;77.18;100204.28;7241917;39;20539;31
2023/09/03 09:38:04;;;;;;;5.55;4.20;;;;;;;22.90;75.50;100198.91;7416509;39;21098;31
2023/09/03 09:43:24;;;;;;;6.95;5.10;;;;;;;22.94;75.14;100207.53;7419904;39;20753;31
2023/09/03 09:54:11;;;;;;;8.85;4.72;;;;;;;23.10;75.23;100196.81;7442092;39;20280;31
2023/09/03 10:04:55;;;;;;;5.03;4.10;;;;;;;23.49;73.58;100192.06;7420444;39;20279;31
2023/09/03 10:10:30;;;;;;;4.60;4.20;;;;;;;23.76;73.75;100194.34;7363486;39;20247;31
2023/09/03 10:21:40;;;;;;;4.10;3.70;;;;;;;24.18;70.59;100189.84;7301599;39;20565;31
2023/09/03 10:32:21;;;;;;;3.68;3.38;;;;;;;24.37;70.57;100190.69;7363458;39;20277;31
2023/09/03 10:43:18;;;;;;;3.46;3.10;;;;;;;24.69;69.22;100180.28;7341528;39;20264;31
2023/09/03 10:48:57;;;;;;;5.72;3.50;;;;;;;25.04;67.82;100191.47;7362707;39;20259;31
2023/09/03 10:59:19;;;;;;;2.60;2.40;;;;;;;25.12;65.38;100186.44;7335667;39;20268;31
2023/09/03 11:09:57;;;;;;;3.42;2.78;;;;;;;25.17;65.00;100188.47;7346286;39;20255;31
2023/09/03 11:15:33;;;;;;;4.70;2.50;;;;;;;25.29;63.40;100185.72;7343447;39;20248;31
2023/09/03 11:21:08;;;;;;;3.47;2.80;;;;;;;25.52;64.07;100188.50;7369976;39;20362;31
2023/09/03 11:31:49;;;;;;;3.82;2.84;;;;;;;25.77;63.37;100182.75;7365040;39;20277;31
2023/09/03 11:37:25;;;;;;;4.50;3.05;;;;;;;25.82;64.85;100186.50;7333857;39;20262;31
2023/09/03 11:43:01;;;;;;;3.40;2.60;;;;;;;25.95;61.99;100183.47;7330312;39;20243;31
2023/09/03 11:48:40;;;;;;;3.20;2.90;;;;;;;26.06;61.87;100189.22;7276130;40;20260;31
2023/09/03 11:54:03;;;;;;;3.37;3.07;;;;;;;26.16;61.42;100187.50;7234366;40;20448;31
2023/09/03 11:59:38;;;;;;;2.80;2.50;;;;;;;26.13;60.74;100176.09;7250357;40;20263;31
2023/09/03 12:05:15;;;;;;;3.28;2.60;;;;;;;26.25;60.77;100179.72;7244786;40;20245;31
2023/09/03 12:10:50;;;;;;;2.55;2.35;;;;;;;26.11;60.41;100186.59;7284400;39;20248;31
2023/09/03 12:16:28;;;;;;;3.53;2.50;;;;;;;26.21;59.64;100184.88;7338018;39;20432;31
2023/09/03 12:22:02;;;;;;;3.22;2.80;;;;;;;26.46;60.38;100182.63;7288640;39;20334;31
2023/09/03 12:27:37;;;;;;;3.55;3.10;;;;;;;26.74;59.66;100161.59;7237487;40;20362;31
2023/09/03 12:33:12;;;;;;;3.62;3.10;;;;;;;26.90;57.94;100167.19;7296900;39;20288;31
2023/09/03 12:39:03;;;;;;;3.87;2.90;;;;;;;26.72;56.93;100161.84;7337876;39;20254;31
2023/09/03 12:44:39;;;;;;;2.80;2.60;;;;;;;26.64;58.48;100159.47;7328247;39;20260;31
2023/09/03 12:50:00;;;;;;;3.65;2.85;;;;;;;26.77;56.52;100163.84;7341514;39;20370;31
2023/09/03 12:55:34;;;;;;;3.75;2.45;;;;;;;26.89;54.61;100175.75;7318929;39;20434;31
2023/09/03 13:01:10;;;;;;;3.20;2.90;;;;;;;26.94;59.31;100173.09;7325734;39;20248;31
2023/09/03 13:06:45;;;;;;;3.56;3.22;;;;;;;26.94;57.81;100186.06;7244302;40;20253;31
2023/09/03 13:12:23;;;;;;;3.30;3.00;;;;;;;27.00;58.09;100182.28;7375096;39;20265;31
2023/09/03 13:17:41;;;;;;;3.82;3.42;;;;;;;27.12;57.60;100175.59;7289222;40;20271;31
2023/09/03 13:23:16;;;;;;;3.10;2.90;;;;;;;27.10;57.14;100174.19;7319762;39;20344;31
2023/09/03 13:28:50;;;;;;;3.40;3.00;;;;;;;27.14;56.58;100176.19;7326046;39;20444;31
2023/09/03 13:34:26;;;;;;;3.65;2.80;;;;;;;27.13;57.11;100181.97;7340366;39;20266;31
2023/09/03 13:39:47;;;;;;;4.08;2.82;;;;;;;27.03;57.43;100171.56;7319872;39;20410;31
2023/09/03 13:45:23;;;;;;;4.75;3.00;;;;;;;26.87;56.66;100173.22;7309748;39;20251;31
2023/09/03 13:50:44;;;;;;;3.22;2.92;;;;;;;26.94;57.33;100177.78;7276916;39;20260;31
2023/09/03 13:56:06;;;;;;;3.10;2.80;;;;;;;26.99;58.35;100177.84;7326186;39;20251;31
2023/09/03 14:01:41;;;;;;;2.90;2.60;;;;;;;27.01;57.46;100164.59;7324191;39;20458;31
2023/09/03 14:07:02;;;;;;;3.90;3.10;;;;;;;27.03;57.12;100165.22;7279963;40;20334;31
2023/09/03 14:12:37;;;;;;;3.53;2.72;;;;;;;27.00;56.80;100161.00;7325044;39;20355;31
2023/09/03 14:18:13;;;;;;;3.83;2.75;;;;;;;26.97;55.96;100152.34;7212594;40;20258;31
2023/09/03 14:23:48;;;;;;;3.10;2.80;;;;;;;26.94;55.00;100152.87;7259168;40;20388;31
2023/09/03 14:29:10;;;;;;;3.20;2.46;;;;;;;27.00;55.83;100155.47;7299712;40;20240;31
2023/09/03 14:34:47;;;;;;;3.20;2.64;;;;;;;27.04;58.05;100151.09;7261526;39;20324;31
2023/09/03 14:40:24;;;;;;;3.60;3.00;;;;;;;26.87;55.98;100145.56;7298870;39;20348;31
2023/09/03 14:45:46;;;;;;;2.90;2.70;;;;;;;26.82;56.59;100150.13;7318982;39;20549;31
2023/09/03 14:51:20;;;;;;;4.28;2.75;;;;;;;26.68;57.31;100144.06;7306228;39;20477;31
2023/09/03 14:56:52;;;;;;;3.55;3.25;;;;;;;26.74;57.57;100140.31;7092335;39;20249;31
2023/09/03 15:02:12;;;;;;;3.55;3.25;;;;;;;26.73;57.13;100133.09;7290656;39;20257;31
2023/09/03 15:07:48;;;;;;;4.00;3.10;;;;;;;26.65;57.11;100125.19;7348367;39;20521;31
2023/09/03 15:13:08;;;;;;;3.88;3.46;;;;;;;26.58;57.23;100132.81;7351039;39;20252;31
2023/09/03 15:18:43;;;;;;;4.70;3.53;;;;;;;26.53;57.26;100149.31;7332707;39;20332;31
2023/09/03 15:24:20;;;;;;;3.55;3.25;;;;;;;26.56;58.58;100137.75;7349749;39;20668;31
2023/09/03 15:29:55;;;;;;;3.55;3.25;;;;;;;26.46;57.65;100132.00;7279400;40;20257;31
2023/09/03 15:35:15;;;;;;;3.80;3.40;;;;;;;26.37;57.97;100145.41;7303628;39;20267;31
2023/09/03 15:40:45;;;;;;;3.92;3.52;;;;;;;26.29;58.37;100142.19;7327815;39;20438;31
2023/09/03 15:46:22;;;;;;;3.60;3.30;;;;;;;26.19;57.62;100145.56;7368845;39;20239;31
2023/09/03 15:51:44;;;;;;;4.00;3.60;;;;;;;26.14;57.86;100152.91;7289157;39;20498;31
2023/09/03 15:57:19;;;;;;;3.62;3.30;;;;;;;26.03;58.21;100160.97;7303695;40;20337;31
2023/09/03 16:02:40;;;;;;;4.43;3.55;;;;;;;25.93;57.81;100159.94;7349668;39;20253;31
2023/09/03 16:08:17;;;;;;;3.50;3.20;;;;;;;25.76;57.88;100151.53;7322117;39;20773;31
2023/09/03 16:18:59;;;;;;;6.07;3.80;;;;;;;25.58;58.15;100153.63;7347392;39;20274;31
2023/09/03 16:29:23;;;;;;;4.27;3.87;;;;;;;25.33;58.37;100149.13;7353876;39;20362;31
2023/09/03 16:35:04;;;;;;;3.90;3.60;;;;;;;25.21;58.78;100140.00;7370963;39;20316;31
2023/09/03 16:40:42;;;;;;;4.07;3.78;;;;;;;25.12;59.39;100144.19;7346379;39;20281;31
2023/09/03 16:51:22;;;;;;;3.97;3.58;;;;;;;24.98;60.23;100135.28;7347779;39;21313;31
2023/09/03 17:01:47;;;;;;;5.25;3.90;;;;;;;24.78;61.90;100139.44;7384123;39;20264;31
2023/09/03 17:07:23;;;;;;;5.10;4.20;;;;;;;24.75;61.84;100137.16;7443336;39;20455;31
2023/09/03 17:12:43;;;;;;;4.85;4.45;;;;;;;24.74;62.02;100136.31;7411561;39;20456;31
2023/09/03 17:18:37;;;;;;;4.50;4.10;;;;;;;24.65;63.54;100134.97;7384820;39;21135;31
2023/09/03 17:24:00;;;;;;;4.90;4.50;;;;;;;24.51;64.19;100125.19;7323681;39;20347;31
2023/09/03 17:29:21;;;;;;;4.80;4.40;;;;;;;24.40;63.92;100131.50;7314526;39;20328;31
2023/09/03 17:34:41;;;;;;;5.85;4.85;;;;;;;24.30;65.63;100133.97;7351924;39;20258;31
2023/09/03 17:40:16;;;;;;;5.07;4.68;;;;;;;24.13;66.15;100142.03;7317288;39;20449;31
2023/09/03 17:45:53;;;;;;;5.62;4.90;;;;;;;24.01;65.58;100136.44;7304706;39;20344;31
2023/09/03 17:51:17;;;;;;;6.12;4.72;;;;;;;23.86;66.84;100140.66;7300982;39;21132;31
2023/09/03 17:56:54;;;;;;;6.80;4.32;;;;;;;23.69;67.41;100138.53;7322684;39;20710;31
2023/09/03 18:07:22;;;;;;;5.70;4.70;;;;;;;23.37;67.07;100142.41;7336451;39;20287;31
2023/09/03 18:13:00;;;;;;;4.90;4.50;;;;;;;23.09;66.32;100145.63;7314755;39;20241;31
2023/09/03 18:18:35;;;;;;;5.60;4.70;;;;;;;22.94;66.52;100147.88;7335326;39;20240;31
2023/09/03 18:24:07;;;;;;;5.05;4.55;;;;;;;22.91;66.82;100140.06;7323267;39;20371;31
2023/09/03 18:29:38;;;;;;;5.54;4.56;;;;;;;22.81;66.47;100148.84;7313362;39;20257;31
2023/09/03 18:35:10;;;;;;;4.90;4.35;;;;;;;22.71;66.56;100158.63;7267987;39;20351;31
2023/09/03 18:40:29;;;;;;;5.00;4.50;;;;;;;22.59;65.53;100157.62;7220432;40;21045;31
2023/09/03 18:46:01;;;;;;;4.90;4.37;;;;;;;22.48;64.97;100157.25;7272654;39;20476;31
2023/09/03 18:56:40;;;;;;;5.33;4.10;;;;;;;22.27;64.75;100148.50;7352183;39;20462;31
2023/09/03 19:02:17;;;;;;;5.40;4.20;;;;;;;22.20;64.89;100165.03;7350468;39;20354;31
2023/09/03 19:12:44;;;;;;;5.18;4.10;;;;;;;22.18;64.31;100166.28;7401323;39;20718;31
2023/09/03 19:18:22;;;;;;;5.25;4.30;;;;;;;22.08;65.24;100169.47;7329150;39;20299;31
2023/09/03 19:29:10;;;;;;;4.20;3.80;;;;;;;21.98;64.72;100177.34;7358100;39;20466;31
2023/09/03 19:34:44;;;;;;;4.43;3.93;;;;;;;21.84;65.05;100183.91;7346728;39;20772;31
2023/09/03 19:45:23;;;;;;;4.37;3.93;;;;;;;21.88;64.94;100179.66;7307701;39;21174;31
2023/09/03 19:56:14;;;;;;;4.15;3.72;;;;;;;21.73;64.61;100177.16;7386067;39;20280;31
2023/09/03 20:01:29;;;;;;;3.50;3.20;;;;;;;21.66;64.41;100178.25;7384350;39;20258;31
2023/09/03 20:07:02;;;;;;;4.07;3.67;;;;;;;21.61;64.59;100184.38;7362099;39;20265;31
2023/09/03 20:12:55;;;;;;;4.35;3.95;;;;;;;21.55;64.55;100171.50;7401665;39;20263;31
2023/09/03 20:18:03;;;;;;;4.40;3.55;;;;;;;21.44;63.86;100177.66;7363085;39;20318;31
2023/09/03 20:23:38;;;;;;;4.47;3.50;;;;;;;21.37;64.77;100165.84;7329363;39;20397;31
2023/09/03 20:29:15;;;;;;;4.28;3.85;;;;;;;21.38;64.46;100165.63;7289501;39;20363;31
2023/09/03 20:34:54;;;;;;;5.72;3.58;;;;;;;21.28;64.50;100172.63;7367794;39;20309;31
2023/09/03 20:40:30;;;;;;;4.28;3.58;;;;;;;21.20;63.94;100172.81;7305916;39;20336;31
2023/09/03 20:46:03;;;;;;;4.40;3.12;;;;;;;21.17;64.60;100170.50;7279414;39;20330;31
2023/09/03 20:51:37;;;;;;;4.36;3.34;;;;;;;21.13;63.75;100164.59;7294099;39;20260;31
2023/09/03 20:57:13;;;;;;;4.33;3.30;;;;;;;21.23;65.03;100158.69;7313309;39;20251;31
2023/09/03 21:02:48;;;;;;;3.56;3.26;;;;;;;21.16;65.32;100146.88;7228007;40;20265;31
2023/09/03 21:08:09;;;;;;;3.42;3.12;;;;;;;20.92;64.93;100157.41;7264190;40;20252;31
2023/09/03 21:13:47;;;;;;;3.70;3.40;;;;;;;20.76;66.06;100138.59;7265791;39;20849;31
2023/09/03 21:19:20;;;;;;;4.07;3.55;;;;;;;20.75;66.37;100134.19;7265963;40;20241;31
2023/09/03 21:24:55;;;;;;;5.60;3.42;;;;;;;20.68;66.02;100149.75;7332116;39;21096;31
2023/09/03 21:30:29;;;;;;;3.93;3.53;;;;;;;20.55;66.24;100153.34;7298072;39;20280;31
2023/09/03 21:36:02;;;;;;;4.05;3.65;;;;;;;20.51;67.40;100160.28;7304132;39;21290;31
2023/09/03 21:41:22;;;;;;;4.68;3.92;;;;;;;20.59;67.60;100167.44;7300737;39;20705;31
2023/09/03 21:57:12;;;;;;;4.80;3.85;;;;;;;20.44;68.42;100170.38;7367735;39;20247;31
2023/09/03 22:02:28;;;;;;;5.72;4.03;;;;;;;20.42;68.03;100175.22;7376871;39;21102;31
2023/09/03 22:08:02;;;;;;;4.62;4.10;;;;;;;20.38;68.43;100170.34;7200560;39;20331;31
2023/09/03 22:13:41;;;;;;;6.53;4.10;;;;;;;20.33;69.05;100162.75;7364179;39;20290;31
2023/09/03 22:19:16;;;;;;;5.25;4.00;;;;;;;20.35;69.41;100162.56;7348085;39;20232;31
2023/09/03 22:24:36;;;;;;;5.00;3.95;;;;;;;20.39;68.68;100170.16;7271278;40;20505;31
2023/09/03 22:35:21;;;;;;;4.67;4.27;;;;;;;20.36;69.03;100173.28;7300630;39;20280;31
2023/09/03 22:40:56;;;;;;;6.00;4.70;;;;;;;20.33;69.35;100176.44;7330506;39;20258;31
2023/09/03 22:46:29;;;;;;;5.37;4.60;;;;;;;20.23;69.60;100175.94;7294692;39;20252;31
2023/09/03 22:51:53;;;;;;;5.13;4.23;;;;;;;20.07;70.53;100168.09;7339041;39;20267;31
2023/09/03 22:57:28;;;;;;;6.10;4.30;;;;;;;20.12;70.56;100177.41;7304066;39;20360;31
2023/09/03 23:02:48;;;;;;;5.03;4.55;;;;;;;20.23;70.84;100175.94;7325139;39;20322;31
2023/09/03 23:08:24;;;;;;;4.87;4.35;;;;;;;20.10;71.31;100173.16;7318033;39;20260;31
2023/09/03 23:13:46;;;;;;;5.25;4.40;;;;;;;20.07;71.00;100177.16;7300886;39;20264;31
2023/09/03 23:19:04;;;;;;;6.23;4.60;;;;;;;19.83;71.48;100169.47;7371935;39;20306;31
2023/09/03 23:24:37;;;;;;;4.93;4.37;;;;;;;19.83;71.28;100154.94;7384285;39;20263;31
2023/09/03 23:35:17;;;;;;;5.35;4.85;;;;;;;19.86;71.95;100169.06;7389746;39;21163;31
2023/09/03 23:40:51;;;;;;;5.20;4.70;;;;;;;19.72;72.16;100179.09;7339091;39;20383;31
2023/09/03 23:46:11;;;;;;;4.90;4.50;;;;;;;19.69;72.83;100178.66;7288282;40;20337;31
2023/09/03 23:51:44;;;;;;;5.60;4.70;;;;;;;19.57;73.35;100161.94;7364180;39;20248;31
2023/09/03 23:57:21;;;;;;;5.50;4.70;;;;;;;19.55;72.99;100155.84;7315392;39;20239;31
